Time;durP1;ratioP1;P1;durP2;ratioP2;P2;SDS_P1;SDS_P2;PMS_P1;PMS_P2;Temp;Humidity;BMP_temperature;BMP_pressure;BME280_temperature;BME280_humidity;BME280_pressure;Samples;Min_cycle;Max_cycle;Signal;HPM_P1;HPM_P2
2021/01/05 06:01:18;;;;;;;2.25;0.50;;;;;;;16.25;54.60;101929.78;5448515;23;20030;31
2021/01/05 06:04:25;;;;;;;0.90;0.43;;;;;;;16.28;55.11;101932.41;4805375;29;20012;-83
2021/01/05 06:16:59;;;;;;;10.00;3.35;;;;;;;16.66;54.03;101937.25;4799988;29;20037;-82
2021/01/05 06:22:25;;;;;;;6.47;2.13;;;;;;;16.80;53.12;101942.63;5001035;23;20140;-83
2021/01/05 06:25:27;;;;;;;7.47;2.20;;;;;;;16.85;53.13;101938.34;4884090;29;20048;-83
2021/01/05 06:30:36;;;;;;;6.30;2.00;;;;;;;16.83;53.16;101938.34;5515231;23;20061;-82
2021/01/05 06:33:08;;;;;;;;;;;;;;;16.87;52.89;101944.44;5549420;24;20076;-81
2021/01/05 06:36:26;;;;;;;5.78;2.00;;;;;;;16.89;52.91;101944.44;4896371;29;19922;-81
2021/01/05 06:39:40;;;;;;;5.28;1.90;;;;;;;16.90;52.78;101949.69;4823052;29;20023;-81
2021/01/05 06:46:39;;;;;;;8.32;1.88;;;;;;;16.92;52.80;101949.66;4802738;30;20107;-81
2021/01/05 06:49:28;;;;;;;4.22;1.70;;;;;;;16.93;52.64;101948.84;4753885;30;20075;-81
2021/01/05 06:52:28;;;;;;;4.22;1.50;;;;;;;16.95;52.77;101955.78;4752591;30;20024;-81
2021/01/05 06:59:01;;;;;;;5.45;1.50;;;;;;;16.95;52.45;101957.53;4692565;30;20498;-83
2021/01/05 07:02:36;;;;;;;3.60;1.30;;;;;;;16.93;52.77;101954.91;4652045;30;20035;-83
2021/01/05 07:09:38;;;;;;;3.03;1.20;;;;;;;16.92;52.48;101944.47;4653892;30;20046;-83
2021/01/05 07:16:25;;;;;;;2.17;1.13;;;;;;;16.95;52.25;101958.38;4616375;30;20073;-83
2021/01/05 07:19:31;;;;;;;4.13;1.38;;;;;;;17.00;52.01;101961.03;4636244;30;20052;-83
2021/01/05 07:27:28;;;;;;;3.58;1.42;;;;;;;16.98;51.85;101970.53;5063556;23;20095;-82
2021/01/05 07:29:53;;;;;;;2.55;1.00;;;;;;;17.05;51.89;101968.03;4902697;29;20044;-82
2021/01/05 07:32:20;;;;;;;3.05;1.17;;;;;;;17.04;51.82;101970.63;4885608;29;20037;-81
2021/01/05 07:34:46;;;;;;;3.95;1.40;;;;;;;17.02;51.54;101972.31;4870548;29;20124;-81
2021/01/05 07:37:22;;;;;;;5.03;1.30;;;;;;;17.05;51.77;101982.78;4870350;29;20037;-80
2021/01/05 07:39:48;;;;;;;4.18;1.25;;;;;;;17.04;51.69;101975.81;4895096;29;20025;-80
2021/01/05 07:42:18;;;;;;;5.22;1.35;;;;;;;17.05;51.82;101982.78;4869335;29;20088;-82
2021/01/05 07:44:46;;;;;;;2.83;0.98;;;;;;;17.04;51.90;101976.69;4883402;29;20097;-78
2021/01/05 07:47:12;;;;;;;2.50;1.00;;;;;;;17.05;51.72;101986.25;4885967;29;20048;-79
2021/01/05 07:49:38;;;;;;;2.30;0.98;;;;;;;17.05;51.53;101988.84;4886416;29;20038;-81
2021/01/05 07:52:40;;;;;;;4.20;1.20;;;;;;;17.05;51.73;101990.59;4889361;29;20039;-82
2021/01/05 07:55:08;;;;;;;1.48;0.88;;;;;;;17.09;51.53;101991.47;4902112;29;20028;-79
2021/01/05 07:57:34;;;;;;;2.92;1.10;;;;;;;17.05;51.72;101995.78;4888226;29;20028;-80
2021/01/05 07:59:59;;;;;;;2.15;0.85;;;;;;;17.06;51.59;102000.13;4871305;29;20065;-80
2021/01/05 08:02:25;;;;;;;2.83;1.20;;;;;;;17.07;51.55;102001.84;4860442;29;20036;-82
2021/01/05 08:04:50;;;;;;;2.20;0.95;;;;;;;17.10;51.63;101999.31;4868453;29;20036;-82
2021/01/05 08:07:16;;;;;;;2.03;1.00;;;;;;;17.08;51.51;102002.75;4867469;29;20088;-79
2021/01/05 08:09:42;;;;;;;2.95;1.20;;;;;;;17.06;51.59;102000.13;4852041;29;20033;-82
2021/01/05 08:12:17;;;;;;;1.92;0.90;;;;;;;17.10;51.53;102001.03;4888323;29;20057;-82
2021/01/05 08:14:44;;;;;;;1.50;0.90;;;;;;;17.08;51.53;101997.53;4876603;29;20031;-82
2021/01/05 08:17:09;;;;;;;3.35;1.02;;;;;;;17.09;51.49;102000.13;4888441;29;20033;-82
2021/01/05 08:19:35;;;;;;;1.50;0.70;;;;;;;17.10;51.42;101993.22;4877746;29;20025;-82
2021/01/05 08:22:01;;;;;;;2.13;0.90;;;;;;;17.08;51.45;102001.00;4872699;29;20048;-82
2021/01/05 08:24:26;;;;;;;1.52;0.90;;;;;;;17.05;51.43;102007.06;4857036;29;20083;-82
2021/01/05 08:26:52;;;;;;;2.42;1.05;;;;;;;17.06;51.34;102000.13;4881721;29;20057;-79
2021/01/05 08:29:17;;;;;;;2.60;1.20;;;;;;;17.04;51.30;102007.88;4885006;29;20499;-79
2021/01/05 08:31:44;;;;;;;2.55;0.80;;;;;;;17.02;51.14;102012.19;4871501;29;20479;-82
2021/01/05 08:34:11;;;;;;;1.75;0.80;;;;;;;17.01;51.32;102013.06;4873220;29;20504;-82
2021/01/05 08:36:36;;;;;;;1.80;1.00;;;;;;;16.99;51.44;102008.72;4874007;29;20384;-82
2021/01/05 08:39:03;;;;;;;1.80;1.08;;;;;;;17.00;51.46;102013.03;4866837;29;20048;-82
2021/01/05 08:41:28;;;;;;;2.17;0.80;;;;;;;16.98;51.50;102010.41;4876572;29;20159;-82
2021/01/05 08:43:55;;;;;;;2.40;0.90;;;;;;;16.98;51.51;102014.75;4859667;29;20075;-80
2021/01/05 08:46:26;;;;;;;2.17;1.00;;;;;;;16.96;51.67;102013.84;4863709;29;20047;-82
2021/01/05 08:48:52;;;;;;;3.08;1.05;;;;;;;16.95;51.65;102015.59;4874593;29;20484;-79
2021/01/05 08:51:20;;;;;;;2.00;0.90;;;;;;;16.93;51.37;102017.31;4860380;29;20128;-81
2021/01/05 08:53:46;;;;;;;1.52;1.00;;;;;;;16.95;51.41;102022.53;4865740;29;20399;-82
2021/01/05 08:56:23;;;;;;;1.23;0.80;;;;;;;16.93;51.55;102022.50;4858768;29;20037;-82
2021/01/05 08:58:49;;;;;;;1.40;0.80;;;;;;;16.94;51.44;102023.38;4878470;29;20452;-79
2021/01/05 09:01:14;;;;;;;1.73;0.82;;;;;;;16.92;51.40;102019.88;4875721;29;20437;-82
2021/01/05 09:03:40;;;;;;;1.90;0.90;;;;;;;16.93;51.54;102024.25;4867090;29;20037;-81
2021/01/05 09:06:07;;;;;;;1.63;1.05;;;;;;;16.91;51.32;102016.41;4862404;29;20036;-82
2021/01/05 09:08:34;;;;;;;1.63;0.85;;;;;;;16.91;51.35;102019.00;4884612;29;20335;-82
2021/01/05 09:11:01;;;;;;;1.50;0.82;;;;;;;16.92;51.50;102022.47;4880764;29;20025;-82
2021/01/05 09:13:28;;;;;;;1.45;0.98;;;;;;;16.90;51.53;102021.59;4895687;29;20115;-82
2021/01/05 09:15:54;;;;;;;1.58;0.93;;;;;;;16.92;51.24;102025.97;4869425;29;20041;-83
2021/01/05 09:18:20;;;;;;;1.55;1.00;;;;;;;16.92;51.37;102025.06;4860735;29;20081;-82
2021/01/05 09:20:52;;;;;;;1.23;0.90;;;;;;;16.90;51.40;102019.88;4893624;29;20033;-82
2021/01/05 09:23:29;;;;;;;1.77;0.98;;;;;;;16.90;51.46;102021.59;4881237;29;20057;-80
2021/01/05 09:25:55;;;;;;;1.50;0.88;;;;;;;16.89;51.24;102017.25;4873433;29;20049;-79
2021/01/05 09:28:24;;;;;;;1.67;1.08;;;;;;;16.88;51.17;102020.72;4907638;29;20043;-82
2021/01/05 09:30:51;;;;;;;1.63;0.80;;;;;;;16.88;51.26;102018.13;4881458;29;20088;-80
2021/01/05 09:33:20;;;;;;;1.38;0.88;;;;;;;16.90;51.56;102017.28;4876196;29;20039;-80
2021/01/05 09:35:48;;;;;;;2.83;1.00;;;;;;;16.91;51.24;102018.13;4863053;29;20056;-82
2021/01/05 09:38:13;;;;;;;1.40;0.90;;;;;;;16.88;50.96;102021.59;4866539;29;20029;-82
2021/01/05 09:40:40;;;;;;;1.92;0.90;;;;;;;16.88;51.04;102026.78;4874015;29;20033;-82
2021/01/05 09:43:06;;;;;;;1.45;0.80;;;;;;;16.88;51.24;102026.78;4856067;29;20086;-82
2021/01/05 09:45:32;;;;;;;1.55;0.80;;;;;;;16.88;51.31;102025.91;4868014;29;20489;-82
2021/01/05 09:48:11;;;;;;;1.10;0.70;;;;;;;16.88;51.14;102031.13;4873181;29;20068;-82
2021/01/05 09:50:42;;;;;;;1.20;0.70;;;;;;;16.86;51.15;102024.16;4878578;29;20123;-83
2021/01/05 09:53:08;;;;;;;1.15;0.75;;;;;;;16.86;51.19;102026.75;4886321;29;20029;-81
2021/01/05 09:55:34;;;;;;;1.20;0.80;;;;;;;16.86;51.34;102025.88;4871798;29;20033;-80
2021/01/05 09:58:00;;;;;;;1.65;0.80;;;;;;;16.85;50.97;102022.44;4874235;29;20040;-80
2021/01/05 10:00:27;;;;;;;1.27;0.80;;;;;;;16.86;50.79;102020.69;4881728;29;20404;-79
2021/01/05 10:02:52;;;;;;;1.42;0.90;;;;;;;16.87;51.10;102032.81;4885162;29;20029;-80
2021/01/05 10:05:21;;;;;;;2.70;1.10;;;;;;;16.86;51.03;102028.50;4895416;29;20042;-79
2021/01/05 10:07:47;;;;;;;0.98;0.80;;;;;;;16.86;51.00;102028.50;4886543;29;20028;-82
2021/01/05 10:10:22;;;;;;;1.52;0.90;;;;;;;16.85;51.12;102029.31;4876077;29;20032;-82
2021/01/05 10:12:48;;;;;;;0.90;0.60;;;;;;;16.86;51.12;102031.09;4884940;29;20029;-82
2021/01/05 10:15:15;;;;;;;1.20;0.80;;;;;;;16.85;51.29;102022.44;4882899;29;20028;-80
2021/01/05 10:17:41;;;;;;;1.92;1.00;;;;;;;16.85;51.19;102024.13;4874480;29;20020;-80
2021/01/05 10:20:08;;;;;;;1.63;0.80;;;;;;;16.85;51.14;102021.53;4869130;29;20625;-80
2021/01/05 10:22:33;;;;;;;1.40;0.80;;;;;;;16.85;51.09;102021.53;4876794;29;20041;-80
2021/01/05 10:24:59;;;;;;;1.20;0.70;;;;;;;16.84;50.99;102028.47;4893919;29;20044;-82
2021/01/05 10:40:22;;;;;;;2.42;0.80;;;;;;;16.83;51.00;102023.22;4884469;24;20042;-80
2021/01/05 10:42:52;;;;;;;1.75;0.77;;;;;;;16.83;51.28;102018.03;4896509;29;20081;-81
2021/01/05 10:45:21;;;;;;;1.23;0.80;;;;;;;16.82;51.11;102024.09;4885830;29;20067;-82
2021/01/05 10:50:24;;;;;;;1.13;0.70;;;;;;;16.83;51.04;102023.22;5071285;23;20472;-80
2021/01/05 10:52:51;;;;;;;1.15;0.77;;;;;;;16.84;51.15;102022.41;4891119;29;20137;-80
2021/01/05 10:55:18;;;;;;;1.27;0.82;;;;;;;16.82;50.89;102022.38;4894669;29;20032;-80
2021/01/05 10:57:44;;;;;;;1.20;0.73;;;;;;;16.82;50.82;102024.97;4900765;29;20033;-81
2021/01/05 11:00:11;;;;;;;1.42;0.70;;;;;;;16.81;50.65;102019.75;4896785;29;20047;-81
2021/01/05 11:02:42;;;;;;;1.65;0.80;;;;;;;16.80;50.97;102008.47;4884234;29;20081;-83
2021/01/05 11:10:20;;;;;;;1.10;0.82;;;;;;;16.81;51.07;102010.25;5908473;23;20016;-82
2021/01/05 11:12:46;;;;;;;1.45;0.90;;;;;;;16.78;51.02;102002.34;4908461;24;2017022;-83
2021/01/05 11:15:15;;;;;;;1.40;0.70;;;;;;;16.79;50.91;102003.25;4901923;29;20036;-83
2021/01/05 11:17:43;;;;;;;1.35;0.90;;;;;;;16.79;50.87;102003.25;4918995;29;20036;-82
2021/01/05 11:20:11;;;;;;;1.75;1.00;;;;;;;16.81;50.95;102002.44;4922375;29;20072;-80
2021/01/05 11:22:37;;;;;;;3.00;1.00;;;;;;;16.83;50.90;101997.22;4903060;29;20033;-83
2021/01/05 11:25:02;;;;;;;2.15;0.90;;;;;;;16.88;50.71;101997.31;4929138;28;20020;-83
2021/01/05 11:27:28;;;;;;;1.85;1.00;;;;;;;16.89;50.74;101993.84;4905844;29;20058;-83
2021/01/05 11:29:53;;;;;;;1.45;0.68;;;;;;;16.91;50.99;101998.22;4906246;28;20098;-82
2021/01/05 11:32:23;;;;;;;1.75;0.88;;;;;;;16.92;50.52;101983.47;4884727;29;20040;-82
2021/01/05 11:34:49;;;;;;;1.38;0.70;;;;;;;16.94;50.55;101990.47;4869897;29;20473;-79
2021/01/05 11:37:18;;;;;;;2.78;0.80;;;;;;;16.95;50.43;101984.38;4901575;29;20040;-81
2021/01/05 11:39:46;;;;;;;1.08;0.70;;;;;;;16.98;50.28;101986.16;4880618;29;20035;-82
2021/01/05 11:42:15;;;;;;;1.15;0.90;;;;;;;16.97;50.39;101980.09;4875198;29;20041;-81
2021/01/05 11:44:41;;;;;;;2.05;0.90;;;;;;;16.98;50.36;101976.59;4873509;29;20060;-79
2021/01/05 11:47:07;;;;;;;1.15;0.70;;;;;;;16.98;50.41;101975.75;4869691;29;20060;-81
2021/01/05 11:49:32;;;;;;;1.10;0.70;;;;;;;16.99;50.21;101978.38;4855204;29;20374;-79
2021/01/05 11:51:58;;;;;;;0.90;0.60;;;;;;;16.97;50.39;101974.88;4889634;29;20051;-81
2021/01/05 11:54:24;;;;;;;3.60;0.90;;;;;;;16.99;50.10;101977.50;4874673;29;20115;-81
2021/01/05 11:56:57;;;;;;;1.88;0.70;;;;;;;17.01;50.26;101976.66;4880737;29;20088;-81
2021/01/05 11:59:23;;;;;;;1.08;0.60;;;;;;;17.00;50.18;101964.50;4889286;29;20539;-79
2021/01/05 12:01:49;;;;;;;1.55;0.88;;;;;;;17.01;50.13;101968.00;4853952;29;20044;-79
2021/01/05 12:04:15;;;;;;;1.13;0.70;;;;;;;17.02;50.44;101967.13;4865415;29;20086;-79
2021/01/05 12:06:46;;;;;;;1.20;0.60;;;;;;;17.02;49.98;101965.38;4869698;29;20041;-79
2021/01/05 12:09:12;;;;;;;1.08;0.70;;;;;;;17.01;50.21;101968.88;4885627;29;20032;-80
2021/01/05 12:11:37;;;;;;;1.00;0.70;;;;;;;17.00;50.12;101956.69;4885504;29;20508;-80
2021/01/05 12:14:05;;;;;;;1.27;0.90;;;;;;;17.02;50.12;101960.19;4852264;29;20036;-79
2021/01/05 12:16:38;;;;;;;0.82;0.60;;;;;;;17.01;50.35;101957.59;4886332;29;20446;-79
2021/01/05 12:19:06;;;;;;;1.20;0.67;;;;;;;16.99;50.20;101961.91;4885956;29;20036;-79
2021/01/05 12:21:37;;;;;;;1.60;0.60;;;;;;;16.97;50.28;101954.06;4875890;29;20025;-79
2021/01/05 12:24:04;;;;;;;1.90;0.70;;;;;;;16.97;50.34;101958.41;4884712;29;20120;-80
2021/01/05 12:26:33;;;;;;;1.25;0.70;;;;;;;16.95;50.18;101957.53;4858419;29;20041;-80
2021/01/05 12:29:01;;;;;;;1.00;0.60;;;;;;;16.94;50.47;101948.88;4883152;29;20028;-80
2021/01/05 12:31:27;;;;;;;1.05;0.80;;;;;;;16.94;50.38;101947.97;4879245;29;20071;-80
2021/01/05 12:33:54;;;;;;;1.38;0.90;;;;;;;16.94;50.30;101943.66;4880672;29;20085;-79
2021/01/05 12:36:28;;;;;;;1.05;0.57;;;;;;;16.93;50.18;101946.22;4864396;29;20018;-81
2021/01/05 12:38:53;;;;;;;0.75;0.68;;;;;;;16.93;50.09;101941.03;4886706;29;20025;-82
2021/01/05 12:41:34;;;;;;;0.80;0.60;;;;;;;16.90;50.45;101936.69;4896707;29;20029;-81
2021/01/05 12:44:12;;;;;;;0.60;0.60;;;;;;;16.92;50.28;101939.28;4886581;29;20088;-83
2021/01/05 12:46:38;;;;;;;1.25;0.77;;;;;;;16.89;50.16;101931.44;4894787;29;20048;-83
2021/01/05 12:49:08;;;;;;;0.82;0.70;;;;;;;16.86;50.40;101927.09;4905726;29;20017;-82
2021/01/05 12:51:39;;;;;;;1.00;0.60;;;;;;;16.86;50.65;101929.69;4891101;29;20034;-84
2021/01/05 12:54:07;;;;;;;1.33;0.80;;;;;;;16.86;50.36;101929.69;4890851;29;20046;-83
2021/01/05 12:56:33;;;;;;;0.65;0.60;;;;;;;16.85;50.29;101922.72;4900571;29;20013;-82
2021/01/05 12:58:58;;;;;;;1.67;0.70;;;;;;;16.84;50.47;101927.06;4903811;29;20028;-82
2021/01/05 13:01:28;;;;;;;1.40;0.68;;;;;;;16.84;50.31;101923.59;4886115;29;20038;-83
2021/01/05 13:03:53;;;;;;;0.98;0.70;;;;;;;16.84;50.27;101923.59;4886677;29;20012;-82
2021/01/05 13:06:19;;;;;;;0.68;0.60;;;;;;;16.83;50.17;101927.03;4888486;29;20005;-82
2021/01/05 13:08:46;;;;;;;1.05;0.68;;;;;;;16.84;50.31;101921.88;4892280;29;20025;-82
2021/01/05 13:11:20;;;;;;;1.05;0.77;;;;;;;16.83;50.27;101922.75;4906901;29;20046;-82
2021/01/05 13:13:48;;;;;;;1.42;0.80;;;;;;;16.83;50.11;101927.03;4906731;29;20056;-82
2021/01/05 13:16:37;;;;;;;1.10;0.80;;;;;;;16.83;50.15;101929.66;4889074;29;20068;-82
2021/01/05 13:24:26;;;;;;;1.20;0.90;;;;;;;16.80;50.25;101927.03;5832321;23;20017;-83
2021/01/05 13:27:01;;;;;;;1.00;0.70;;;;;;;16.81;50.38;101928.75;4893557;29;20032;-85
2021/01/05 13:29:35;;;;;;;1.75;0.88;;;;;;;16.82;50.47;101931.38;4897435;29;20020;-80
2021/01/05 13:32:15;;;;;;;1.23;0.60;;;;;;;16.80;50.41;101933.09;4874816;29;20033;-83
2021/01/05 13:37:17;;;;;;;0.95;0.80;;;;;;;16.78;50.44;101932.16;4903009;29;20049;-84
2021/01/05 13:39:47;;;;;;;1.23;0.70;;;;;;;16.79;50.38;101933.94;4904145;29;20499;-84
2021/01/05 13:42:17;;;;;;;1.50;0.77;;;;;;;16.80;50.28;101932.22;4906551;29;20112;-84
2021/01/05 13:45:11;;;;;;;1.25;0.80;;;;;;;16.78;50.17;101926.09;4906750;29;20060;-83
2021/01/05 13:48:07;;;;;;;1.10;0.80;;;;;;;16.78;50.16;101931.31;4902127;29;20053;-84
2021/01/05 13:50:34;;;;;;;1.17;0.80;;;;;;;16.78;50.29;101934.75;4899842;29;20045;-84
2021/01/05 13:53:34;;;;;;;0.90;0.70;;;;;;;16.76;50.32;101939.06;4884164;29;20025;-83
2021/01/05 14:03:50;;;;;;;0.85;0.70;;;;;;;16.78;50.37;101944.28;5544248;23;20053;-84
2021/01/05 14:06:28;;;;;;;1.45;1.00;;;;;;;16.75;50.24;101944.28;4922737;29;20025;-84
2021/01/05 14:08:55;;;;;;;0.70;0.63;;;;;;;16.77;50.41;101945.16;4901890;29;20044;-84
2021/01/05 14:11:24;;;;;;;1.00;0.70;;;;;;;16.75;50.40;101941.69;4911318;29;20016;-83
2021/01/05 14:13:55;;;;;;;1.23;0.80;;;;;;;16.75;50.21;101936.47;4922504;29;20013;-84
2021/01/05 14:16:29;;;;;;;1.52;0.65;;;;;;;16.75;50.11;101941.69;4922685;29;20061;-84
2021/01/05 14:18:55;;;;;;;1.20;0.80;;;;;;;16.74;50.31;101935.56;4887163;29;20021;-83
2021/01/05 14:21:38;;;;;;;1.10;0.80;;;;;;;16.77;50.25;101947.75;4894905;29;20068;-84
2021/01/05 14:24:17;;;;;;;0.80;0.70;;;;;;;16.74;50.42;101945.97;4885946;29;20049;-84
2021/01/05 14:26:43;;;;;;;0.70;0.60;;;;;;;16.74;50.24;101945.97;4901621;29;20037;-85
2021/01/05 14:29:11;;;;;;;1.33;0.90;;;;;;;16.74;50.14;101945.97;4894443;29;20004;-84
2021/01/05 14:31:37;;;;;;;1.33;0.82;;;;;;;16.75;50.30;101946.88;4890313;29;20035;-81
2021/01/05 14:34:03;;;;;;;1.38;0.90;;;;;;;16.75;50.11;101947.75;4864833;29;20400;-82
2021/01/05 14:36:35;;;;;;;1.08;0.70;;;;;;;16.74;50.31;101951.19;4873392;29;20886;-81
2021/01/05 14:39:03;;;;;;;1.30;0.90;;;;;;;16.74;50.43;101945.97;4876437;29;20060;-81
2021/01/05 14:41:36;;;;;;;0.82;0.80;;;;;;;16.74;50.32;101945.13;4885571;29;20029;-81
2021/01/05 14:44:04;;;;;;;1.00;0.88;;;;;;;16.74;50.20;101955.50;4877864;29;20428;-81
2021/01/05 14:46:35;;;;;;;1.40;0.73;;;;;;;16.73;49.92;101957.25;4869357;29;20045;-81
2021/01/05 14:49:02;;;;;;;1.77;1.20;;;;;;;16.72;50.10;101952.03;4877779;29;20029;-81
2021/01/05 14:51:31;;;;;;;0.98;0.77;;;;;;;16.73;50.29;101956.38;4881688;29;20070;-81
2021/01/05 14:53:56;;;;;;;1.25;0.93;;;;;;;16.73;50.25;101953.78;4888806;29;20057;-81
2021/01/05 14:56:26;;;;;;;1.13;0.80;;;;;;;16.72;50.21;101952.88;4871760;29;20029;-81
2021/01/05 14:58:55;;;;;;;1.35;0.90;;;;;;;16.71;50.16;101950.28;4868823;29;20084;-80
2021/01/05 15:01:21;;;;;;;1.30;1.10;;;;;;;16.71;50.35;101948.56;4896865;29;20036;-81
2021/01/05 15:03:49;;;;;;;1.67;1.08;;;;;;;16.72;50.35;101957.22;4897935;29;20045;-80
2021/01/05 15:06:22;;;;;;;1.20;1.00;;;;;;;16.70;50.25;101952.03;4886770;29;20033;-80
2021/01/05 15:08:48;;;;;;;1.50;1.00;;;;;;;16.71;50.02;101956.34;4879038;29;20031;-80
2021/01/05 15:11:17;;;;;;;1.40;1.02;;;;;;;16.70;50.09;101949.41;4887171;29;20396;-81
2021/01/05 15:13:43;;;;;;;1.38;0.95;;;;;;;16.71;50.06;101965.88;4868989;29;20033;-80
2021/01/05 15:16:08;;;;;;;1.35;0.85;;;;;;;16.71;50.20;101958.94;4875827;29;20091;-81
2021/01/05 15:18:33;;;;;;;1.42;0.93;;;;;;;16.70;50.24;101952.03;4861774;29;20073;-81
2021/01/05 15:20:59;;;;;;;1.70;0.90;;;;;;;16.70;50.16;101959.81;4872685;29;20124;-80
2021/01/05 15:23:24;;;;;;;1.13;0.90;;;;;;;16.71;50.30;101963.28;4874403;29;20376;-81
2021/01/05 15:25:50;;;;;;;1.90;1.10;;;;;;;16.69;50.22;101955.47;4880618;29;20441;-80
2021/01/05 15:28:15;;;;;;;1.05;0.75;;;;;;;16.69;50.06;101958.06;4856766;29;20044;-81
2021/01/05 15:30:40;;;;;;;1.92;1.10;;;;;;;16.69;50.42;101967.59;4908318;29;20067;-81
2021/01/05 15:33:06;;;;;;;1.63;1.15;;;;;;;16.70;50.00;101956.31;4858097;29;20041;-80
2021/01/05 15:35:31;;;;;;;1.00;0.90;;;;;;;16.71;50.01;101953.75;4885743;29;20032;-81
2021/01/05 15:37:56;;;;;;;2.30;1.10;;;;;;;16.75;49.82;101959.88;4888864;29;20440;-81
2021/01/05 15:40:22;;;;;;;1.38;0.90;;;;;;;16.75;49.92;101959.88;4885090;29;20396;-81
2021/01/05 15:42:47;;;;;;;1.35;0.90;;;;;;;16.76;49.83;101959.00;4871673;29;20029;-81
2021/01/05 15:45:13;;;;;;;1.58;0.98;;;;;;;16.77;49.68;101963.38;4880094;29;20030;-82
2021/01/05 15:47:39;;;;;;;1.52;1.00;;;;;;;16.78;49.71;101963.34;4864620;29;20028;-82
2021/01/05 15:50:18;;;;;;;1.00;0.80;;;;;;;16.79;49.58;101961.66;4872351;29;20037;-82
2021/01/05 15:52:44;;;;;;;1.35;0.88;;;;;;;16.78;49.64;101959.88;4889572;29;20108;-83
2021/01/05 15:55:25;;;;;;;1.42;1.00;;;;;;;16.83;49.48;101966.03;4901088;29;20028;-82
2021/01/05 15:57:50;;;;;;;1.25;0.93;;;;;;;16.81;49.37;101962.53;4886771;29;20037;-82
2021/01/05 16:00:16;;;;;;;1.35;0.85;;;;;;;16.81;49.50;101959.94;4896433;29;20060;-82
2021/01/05 16:02:42;;;;;;;1.98;1.10;;;;;;;16.83;49.54;101959.13;4881124;29;20052;-82
2021/01/05 16:05:07;;;;;;;1.30;0.82;;;;;;;16.84;49.56;101968.66;4892764;29;20044;-81
2021/01/05 16:07:33;;;;;;;2.72;1.00;;;;;;;16.84;49.53;101970.41;4892531;29;20040;-81
2021/01/05 16:09:59;;;;;;;1.10;0.88;;;;;;;16.84;49.32;101967.81;4890499;29;20369;-81
2021/01/05 16:12:25;;;;;;;1.83;1.10;;;;;;;16.85;49.42;101964.34;4857213;29;20025;-81
2021/01/05 16:14:50;;;;;;;1.42;0.93;;;;;;;16.85;49.21;101969.53;4901391;29;20028;-81
2021/01/05 16:17:16;;;;;;;1.00;0.80;;;;;;;16.85;49.09;101961.72;4893516;29;20032;-81
2021/01/05 16:19:41;;;;;;;1.02;0.85;;;;;;;16.86;49.41;101966.09;4871214;29;20025;-81
2021/01/05 16:22:36;;;;;;;1.90;1.10;;;;;;;16.85;49.48;101964.34;4886420;29;20013;-83
2021/01/05 16:25:26;;;;;;;2.60;1.17;;;;;;;16.85;49.45;101964.34;4872658;29;20062;-82
2021/01/05 16:27:57;;;;;;;1.67;1.00;;;;;;;16.84;49.59;101970.41;4847117;29;20024;-83
2021/01/05 16:30:51;;;;;;;1.75;0.80;;;;;;;16.82;49.62;101962.56;4867108;29;20181;-83
2021/01/05 16:37:16;;;;;;;1.45;1.00;;;;;;;16.86;49.55;101963.50;4886487;29;20121;-83
2021/01/05 16:47:31;;;;;;;2.53;1.08;;;;;;;16.85;49.63;101969.53;4616933;27;20089;-81
2021/01/05 16:50:22;;;;;;;1.73;1.00;;;;;;;16.86;49.72;101979.97;4869551;29;20037;-83
2021/01/05 16:52:48;;;;;;;2.05;1.20;;;;;;;16.85;49.74;101975.63;4881221;29;20052;-82
2021/01/05 16:55:15;;;;;;;2.47;1.13;;;;;;;16.87;49.86;101967.81;4889102;29;20048;-83
2021/01/05 16:57:41;;;;;;;1.90;1.20;;;;;;;16.88;49.85;101969.59;4892369;29;20036;-80
2021/01/05 17:00:14;;;;;;;3.17;1.30;;;;;;;16.88;49.74;101977.38;4871725;29;20037;-80
2021/01/05 17:02:39;;;;;;;2.60;1.30;;;;;;;16.89;49.64;101971.31;4856107;29;20034;-79
2021/01/05 17:05:05;;;;;;;2.90;1.35;;;;;;;16.89;49.84;101970.44;4855719;29;20036;-80
2021/01/05 17:07:30;;;;;;;5.28;1.15;;;;;;;16.88;49.77;101972.19;4899791;29;20024;-81
2021/01/05 17:09:57;;;;;;;2.38;1.15;;;;;;;16.91;49.61;101974.81;4869528;29;20551;-79
2021/01/05 17:12:22;;;;;;;3.40;1.40;;;;;;;16.94;49.61;101973.97;4864462;29;20037;-81
2021/01/05 17:14:48;;;;;;;3.40;1.40;;;;;;;16.96;49.45;101973.16;4873741;29;20058;-81
2021/01/05 17:17:13;;;;;;;1.60;1.20;;;;;;;16.98;49.34;101980.94;4866687;29;20045;-81
2021/01/05 17:19:38;;;;;;;1.40;1.00;;;;;;;16.98;49.41;101986.16;4837073;29;20029;-81
2021/01/05 17:22:06;;;;;;;5.43;1.50;;;;;;;16.99;49.26;101980.97;4838474;29;20028;-80
2021/01/05 17:24:34;;;;;;;2.85;1.10;;;;;;;17.00;49.29;101974.91;4880767;29;20069;-80
2021/01/05 17:27:03;;;;;;;4.15;1.50;;;;;;;17.01;49.29;101975.81;4858682;29;20100;-79
2021/01/05 17:29:28;;;;;;;6.03;1.40;;;;;;;17.00;49.11;101977.50;4888943;29;20866;-80
2021/01/05 17:31:53;;;;;;;5.72;1.50;;;;;;;17.02;49.04;101981.00;4873810;29;20044;-81
2021/01/05 17:34:19;;;;;;;3.65;1.27;;;;;;;17.02;49.19;101977.53;4874814;29;20051;-80
2021/01/05 17:36:48;;;;;;;2.97;1.35;;;;;;;17.03;49.22;101982.75;4861794;29;20029;-81
2021/01/05 17:39:13;;;;;;;2.83;1.45;;;;;;;17.02;49.41;101988.78;4879761;29;20048;-81
2021/01/05 17:41:39;;;;;;;2.35;1.10;;;;;;;17.05;49.15;101993.19;4866327;29;20032;-81
2021/01/05 17:44:04;;;;;;;2.72;1.30;;;;;;;17.04;49.01;101989.69;4868644;29;20028;-81
2021/01/05 17:46:30;;;;;;;5.63;1.20;;;;;;;17.05;48.85;101993.19;4876817;29;20049;-81
2021/01/05 17:48:56;;;;;;;1.95;1.20;;;;;;;17.04;49.32;101988.81;4878217;29;20052;-81
2021/01/05 17:51:21;;;;;;;3.25;1.30;;;;;;;17.06;49.22;101997.50;4886455;29;20021;-82
2021/01/05 17:53:46;;;;;;;1.65;1.08;;;;;;;17.06;49.06;101995.78;4856785;29;20265;-81
2021/01/05 17:56:12;;;;;;;6.20;1.40;;;;;;;17.07;48.99;101994.03;4886582;29;20034;-82
2021/01/05 17:58:38;;;;;;;2.42;1.60;;;;;;;17.05;49.29;102003.59;4876895;29;20033;-81
2021/01/05 18:01:04;;;;;;;1.75;1.20;;;;;;;17.08;49.02;102001.00;4888574;29;20032;-81
2021/01/05 18:03:35;;;;;;;2.55;1.38;;;;;;;17.07;49.06;101999.25;4869907;29;20044;-81
2021/01/05 18:06:00;;;;;;;3.15;1.27;;;;;;;17.06;49.12;101997.50;4903039;29;20648;-80
2021/01/05 18:08:25;;;;;;;4.28;1.33;;;;;;;17.16;48.83;101995.88;4875319;29;20036;-80
2021/01/05 18:10:51;;;;;;;1.55;0.90;;;;;;;17.14;49.04;102001.09;4859835;29;20039;-82
2021/01/05 18:13:16;;;;;;;3.20;1.20;;;;;;;17.10;49.29;102001.91;4891448;29;20037;-79
2021/01/05 18:15:42;;;;;;;2.47;1.30;;;;;;;17.08;49.17;102010.53;4895525;29;20027;-80
2021/01/05 18:18:08;;;;;;;1.75;1.10;;;;;;;17.06;49.44;102006.19;4914846;29;20485;-79
2021/01/05 18:20:33;;;;;;;2.45;1.38;;;;;;;17.06;49.39;102015.72;4875032;29;20032;-79
2021/01/05 18:22:59;;;;;;;1.98;1.10;;;;;;;17.05;49.54;102012.25;4903204;29;20115;-84
2021/01/05 18:25:26;;;;;;;3.45;1.30;;;;;;;17.05;49.60;102011.38;4879262;29;20092;-81
2021/01/05 18:27:52;;;;;;;2.42;1.48;;;;;;;17.06;49.60;102010.53;4882872;29;20060;-81
2021/01/05 18:30:21;;;;;;;4.68;1.30;;;;;;;17.05;50.10;102017.47;4896502;29;20168;-81
2021/01/05 18:32:46;;;;;;;2.58;1.40;;;;;;;17.08;50.08;102014.00;4883526;29;20092;-79
2021/01/05 18:35:13;;;;;;;5.15;1.58;;;;;;;17.10;50.44;102003.63;4868643;29;20037;-79
2021/01/05 18:37:39;;;;;;;3.47;1.33;;;;;;;17.14;50.47;102010.63;4880147;29;20037;-81
2021/01/05 18:40:14;;;;;;;4.30;1.55;;;;;;;17.16;50.41;102009.78;4889845;29;20159;-80
2021/01/05 18:42:40;;;;;;;3.33;1.15;;;;;;;17.15;50.55;102009.75;4907364;29;20551;-80
2021/01/05 18:45:06;;;;;;;4.03;1.30;;;;;;;17.14;50.51;102006.28;4867460;29;20124;-80
2021/01/05 18:47:31;;;;;;;3.67;1.27;;;;;;;17.15;50.61;102008.00;4887494;29;20048;-81
2021/01/05 18:49:57;;;;;;;3.65;1.50;;;;;;;17.15;50.57;102009.75;4889837;29;20051;-80
2021/01/05 18:52:22;;;;;;;2.47;1.30;;;;;;;17.16;50.69;102016.69;4871757;29;20045;-79
2021/01/05 18:54:47;;;;;;;1.73;1.20;;;;;;;17.17;50.62;102018.44;4879642;29;20089;-80
2021/01/05 18:57:14;;;;;;;2.78;1.20;;;;;;;17.17;50.72;102018.44;4870178;29;20079;-80
2021/01/05 18:59:40;;;;;;;3.25;1.10;;;;;;;17.16;50.81;102017.56;4879019;29;20025;-80
2021/01/05 19:02:05;;;;;;;1.85;1.27;;;;;;;17.16;50.61;102008.88;4883892;29;20563;-79